Time;durP1;ratioP1;P1;durP2;ratioP2;P2;SDS_P1;SDS_P2;PMS_P1;PMS_P2;Temp;Humidity;BMP_temperature;BMP_pressure;BME280_temperature;BME280_humidity;BME280_pressure;Samples;Min_cycle;Max_cycle;Signal;HPM_P1;HPM_P2
2022/06/25 00:01:49;;;;;;;6.17;1.53;;;;;;;24.23;60.29;99976.66;4970295;28;20182;-70
2022/06/25 00:06:58;;;;;;;5.77;1.80;;;;;;;24.22;60.18;99975.03;4957919;28;20245;-72
2022/06/25 00:09:24;;;;;;;3.23;1.60;;;;;;;24.21;60.53;99970.50;4970978;28;20433;-71
2022/06/25 00:14:33;;;;;;;3.57;1.40;;;;;;;24.20;60.12;99977.53;4977296;28;20259;-71
2022/06/25 00:16:58;;;;;;;4.70;1.67;;;;;;;24.19;60.31;99978.75;4958494;28;20430;-71
2022/06/25 00:19:24;;;;;;;2.77;1.50;;;;;;;24.18;60.01;99977.13;4956119;28;20185;-71
2022/06/25 00:21:50;;;;;;;7.67;1.60;;;;;;;24.18;60.25;99980.00;4974089;28;20225;-71
2022/06/25 00:24:18;;;;;;;3.53;1.40;;;;;;;24.18;60.14;99979.19;4957192;28;20186;-72
2022/06/25 00:26:44;;;;;;;4.60;1.80;;;;;;;24.18;60.29;99988.66;4978689;28;20417;-71
2022/06/25 00:29:10;;;;;;;6.03;1.83;;;;;;;24.16;59.84;99976.75;4977201;28;20440;-71
2022/06/25 00:31:36;;;;;;;5.50;2.37;;;;;;;24.14;59.83;99973.44;4993894;28;20201;-71
2022/06/25 00:34:02;;;;;;;3.57;1.73;;;;;;;24.12;60.17;99980.88;4980239;28;20432;-71
2022/06/25 00:36:27;;;;;;;4.53;2.00;;;;;;;24.11;59.66;99982.13;4990286;28;20429;-71
2022/06/25 00:38:53;;;;;;;3.93;2.00;;;;;;;24.10;59.86;99986.28;4991848;28;20189;-72
2022/06/25 00:41:18;;;;;;;9.13;1.50;;;;;;;24.11;59.91;99982.13;4989845;28;20182;-71
2022/06/25 00:43:43;;;;;;;7.63;2.27;;;;;;;24.10;59.88;99992.88;4990065;28;20657;-70
2022/06/25 00:46:09;;;;;;;3.63;1.80;;;;;;;24.11;59.92;99990.78;4955404;28;20186;-70
2022/06/25 00:48:34;;;;;;;4.43;1.53;;;;;;;24.10;59.89;99986.28;4955859;28;20185;-71
2022/06/25 00:51:00;;;;;;;3.40;1.63;;;;;;;24.11;59.98;99993.69;4969135;28;20202;-70
2022/06/25 00:53:29;;;;;;;5.43;1.77;;;;;;;24.11;59.58;99997.38;4974251;28;20174;-71
2022/06/25 00:55:54;;;;;;;3.53;1.50;;;;;;;24.10;59.59;99989.16;4974345;28;20255;-71
2022/06/25 00:58:20;;;;;;;4.43;1.63;;;;;;;24.09;59.69;99994.09;4970139;28;20430;-72
2022/06/25 01:00:45;;;;;;;6.90;1.90;;;;;;;24.11;59.69;100000.28;4972564;28;20543;-72
2022/06/25 01:03:10;;;;;;;3.30;1.97;;;;;;;24.10;59.59;99992.03;4956803;28;20206;-71
2022/06/25 01:05:36;;;;;;;4.43;1.73;;;;;;;24.11;59.48;100000.28;4967335;28;20221;-72
2022/06/25 01:08:01;;;;;;;3.00;1.63;;;;;;;24.11;59.60;99994.50;4990922;28;20174;-72
2022/06/25 01:10:28;;;;;;;4.80;1.80;;;;;;;24.10;59.62;99992.03;4987525;28;20170;-71
2022/06/25 01:12:53;;;;;;;4.20;1.50;;;;;;;24.10;59.19;99995.75;4973582;28;20178;-71
2022/06/25 01:15:19;;;;;;;3.27;1.60;;;;;;;24.10;59.60;99994.91;4971572;28;20445;-70
2022/06/25 01:17:46;;;;;;;7.83;1.80;;;;;;;24.09;59.65;99991.22;4974340;28;20178;-71
2022/06/25 01:20:12;;;;;;;3.10;1.47;;;;;;;24.09;59.47;99985.44;4957371;28;20175;-72
2022/06/25 01:22:37;;;;;;;3.47;1.50;;;;;;;24.08;59.30;99989.56;4952822;28;20424;-72
2022/06/25 01:25:03;;;;;;;5.90;1.77;;;;;;;24.08;59.63;99994.53;4956392;28;20189;-70
2022/06/25 01:27:29;;;;;;;3.50;1.70;;;;;;;24.07;59.04;99992.88;4960318;28;20230;-71
2022/06/25 01:29:54;;;;;;;2.87;1.50;;;;;;;24.07;59.49;99993.72;4950294;28;20175;-70
2022/06/25 01:32:20;;;;;;;7.20;1.90;;;;;;;24.06;59.54;99994.13;4966818;28;20207;-70
2022/06/25 01:34:45;;;;;;;3.70;1.20;;;;;;;24.05;59.69;99987.56;4951010;29;20175;-71
2022/06/25 01:37:10;;;;;;;6.57;1.50;;;;;;;24.05;59.43;99990.44;4956298;28;20264;-71
2022/06/25 01:39:36;;;;;;;7.40;1.90;;;;;;;24.04;59.49;99994.56;4954169;28;20175;-71
2022/06/25 01:42:01;;;;;;;11.80;1.70;;;;;;;24.04;59.20;100000.31;4953377;29;20171;-71
2022/06/25 01:44:29;;;;;;;3.67;1.57;;;;;;;24.04;59.14;99993.75;4955855;28;20178;-71
2022/06/25 01:46:55;;;;;;;6.27;1.37;;;;;;;24.03;59.35;99992.13;4955824;28;20185;-71
2022/06/25 01:49:21;;;;;;;7.50;1.60;;;;;;;24.03;59.53;99992.91;4971169;28;20410;-70
2022/06/25 01:51:47;;;;;;;5.77;1.40;;;;;;;24.03;59.27;99997.88;4978950;28;20477;-71
2022/06/25 01:54:12;;;;;;;3.53;1.20;;;;;;;24.01;59.02;99989.66;4969884;28;20638;-70
2022/06/25 01:56:38;;;;;;;4.50;2.00;;;;;;;23.99;59.08;99989.25;4954379;28;20197;-71
2022/06/25 01:59:03;;;;;;;3.40;1.20;;;;;;;23.99;59.43;99992.13;4970682;28;20213;-70
2022/06/25 02:01:28;;;;;;;8.60;1.40;;;;;;;24.01;59.37;99994.59;4972947;28;20182;-71
2022/06/25 02:03:54;;;;;;;8.33;1.70;;;;;;;24.01;59.18;99998.31;4971559;28;20209;-72
2022/06/25 02:06:19;;;;;;;4.73;1.40;;;;;;;24.03;59.38;100003.66;4972353;28;20234;-71
2022/06/25 02:08:45;;;;;;;4.23;1.00;;;;;;;24.03;59.21;99998.69;4971606;28;20171;-70
2022/06/25 02:11:10;;;;;;;3.17;1.40;;;;;;;24.04;59.19;99994.56;4973390;28;20202;-72
2022/06/25 02:13:36;;;;;;;2.07;1.20;;;;;;;24.04;58.93;100003.19;4973525;28;20705;-71
2022/06/25 02:16:01;;;;;;;7.57;1.40;;;;;;;24.04;59.33;100008.97;4971500;28;20621;-70
2022/06/25 02:18:27;;;;;;;3.03;1.30;;;;;;;24.04;59.20;100006.09;4939472;28;20178;-70
2022/06/25 02:20:52;;;;;;;5.50;1.30;;;;;;;24.05;58.99;100013.53;4954835;28;20170;-72
2022/06/25 02:23:18;;;;;;;5.83;1.30;;;;;;;24.05;58.65;100010.63;4937620;28;20661;-72
2022/06/25 02:25:43;;;;;;;11.10;2.10;;;;;;;24.03;58.85;100010.22;4955460;28;20170;-71
2022/06/25 02:28:09;;;;;;;3.20;1.40;;;;;;;24.04;58.96;100011.84;4971402;28;20178;-70
2022/06/25 02:30:35;;;;;;;4.00;1.57;;;;;;;24.04;58.90;100008.16;4971575;28;20704;-70
2022/06/25 02:33:01;;;;;;;6.33;1.10;;;;;;;24.01;59.00;100001.19;4955296;28;20178;-71
2022/06/25 02:35:26;;;;;;;6.60;1.30;;;;;;;24.00;58.84;100005.31;4960156;28;20174;-72
2022/06/25 02:37:52;;;;;;;3.87;1.30;;;;;;;23.99;58.67;100002.84;4953517;28;20895;-70
2022/06/25 02:40:18;;;;;;;9.43;1.20;;;;;;;23.96;58.64;100006.59;4969194;28;20182;-70
2022/06/25 02:42:43;;;;;;;3.50;1.30;;;;;;;23.94;58.97;100003.31;4973479;28;20957;-70
2022/06/25 02:45:09;;;;;;;3.73;1.37;;;;;;;23.95;59.02;99996.28;4952157;28;20919;-70
2022/06/25 02:47:34;;;;;;;3.60;1.33;;;;;;;23.95;58.87;99997.13;4969591;28;20503;-72
2022/06/25 02:50:00;;;;;;;5.50;1.40;;;;;;;23.95;58.84;100002.91;4972042;28;20178;-70
2022/06/25 02:52:25;;;;;;;7.07;1.30;;;;;;;23.94;59.08;100007.00;4974721;28;20210;-71
2022/06/25 02:54:51;;;;;;;5.97;1.23;;;;;;;23.94;58.76;100001.22;4966131;28;20213;-72
2022/06/25 03:00:00;;;;;;;8.63;1.30;;;;;;;23.94;58.97;100000.44;4970669;28;20169;-70
2022/06/25 03:02:27;;;;;;;4.37;1.23;;;;;;;23.94;58.96;99995.47;4969369;28;20417;-71
2022/06/25 03:04:52;;;;;;;3.70;1.27;;;;;;;23.94;58.55;100001.22;4973285;28;20724;-71
2022/06/25 03:07:18;;;;;;;3.60;1.40;;;;;;;23.94;58.98;100009.88;4957608;28;20528;-70
2022/06/25 03:09:43;;;;;;;6.10;1.23;;;;;;;23.94;58.87;100012.75;4971925;28;20178;-72
2022/06/25 03:12:09;;;;;;;6.03;1.43;;;;;;;23.92;58.45;100009.50;4989563;28;20201;-70
2022/06/25 03:14:34;;;;;;;5.00;1.13;;;;;;;23.91;58.35;100013.63;4969510;28;20182;-71
2022/06/25 03:16:59;;;;;;;4.10;1.30;;;;;;;23.92;58.82;100011.56;4960908;28;20171;-76
2022/06/25 03:19:25;;;;;;;3.47;1.20;;;;;;;23.91;58.87;100012.81;4956770;28;20165;-72
2022/06/25 03:21:50;;;;;;;4.27;1.10;;;;;;;23.92;58.63;100012.38;4941074;28;20657;-72
2022/06/25 03:24:16;;;;;;;4.90;1.20;;;;;;;23.91;58.47;100013.63;4970781;28;20174;-70
2022/06/25 03:26:41;;;;;;;4.97;0.97;;;;;;;23.93;58.37;100021.88;4974641;28;20797;-71
2022/06/25 03:29:07;;;;;;;5.50;1.40;;;;;;;23.92;58.51;100023.91;4970314;28;20570;-70
2022/06/25 03:31:32;;;;;;;2.97;1.33;;;;;;;23.90;58.52;100029.31;4970168;28;20194;-70
2022/06/25 03:33:58;;;;;;;2.90;1.30;;;;;;;23.89;58.68;100021.88;4975938;28;20174;-71
2022/06/25 03:36:23;;;;;;;2.83;1.20;;;;;;;23.89;58.21;100027.63;4973961;28;20170;-70
2022/06/25 03:38:49;;;;;;;8.87;1.40;;;;;;;23.90;58.72;100034.25;4971997;28;20174;-70
2022/06/25 03:41:32;;;;;;;2.50;1.30;;;;;;;23.89;58.46;100033.41;4971896;28;20173;-72
2022/06/25 03:44:07;;;;;;;6.13;1.50;;;;;;;23.88;58.41;100030.94;4975453;28;20175;-70
2022/06/25 03:46:33;;;;;;;2.43;1.23;;;;;;;23.87;58.22;100041.63;4958696;28;20460;-70
2022/06/25 03:48:59;;;;;;;3.10;1.30;;;;;;;23.88;58.38;100039.59;4957953;28;20429;-72
2022/06/25 03:51:25;;;;;;;5.50;1.47;;;;;;;23.86;58.32;100037.13;4944311;28;20226;-71
2022/06/25 03:53:51;;;;;;;5.00;1.57;;;;;;;23.86;58.63;100040.00;4957328;28;20826;-72
2022/06/25 03:56:16;;;;;;;4.73;1.50;;;;;;;23.85;58.49;100047.03;4955626;28;20186;-72
2022/06/25 03:58:42;;;;;;;3.50;1.40;;;;;;;23.86;58.41;100045.78;4973781;28;20916;-70
2022/06/25 04:01:07;;;;;;;5.53;1.57;;;;;;;23.84;58.29;100036.72;4955713;28;20171;-70
2022/06/25 04:03:33;;;;;;;4.77;1.33;;;;;;;23.86;57.92;100045.78;4941399;28;20194;-70
2022/06/25 04:05:58;;;;;;;4.57;1.80;;;;;;;23.85;58.18;100049.91;4957062;28;20238;-70
2022/06/25 04:08:23;;;;;;;2.90;1.20;;;;;;;23.85;58.26;100052.78;4957586;28;20721;-71
2022/06/25 04:10:49;;;;;;;10.53;1.50;;;;;;;23.85;58.10;100061.44;4956572;28;20569;-71
2022/06/25 04:13:14;;;;;;;4.40;1.27;;;;;;;23.86;58.26;100056.47;4957667;28;20680;-71
2022/06/25 04:15:40;;;;;;;2.33;1.10;;;;;;;23.85;58.16;100058.56;4973637;28;20186;-71
2022/06/25 04:18:05;;;;;;;3.47;1.17;;;;;;;23.86;58.09;100059.34;4971786;28;20175;-70
2022/06/25 04:20:32;;;;;;;5.13;1.07;;;;;;;23.85;57.99;100067.22;4973104;28;20202;-70
2022/06/25 04:22:57;;;;;;;3.83;1.43;;;;;;;23.84;58.32;100064.75;4957780;28;20178;-70
2022/06/25 04:25:22;;;;;;;5.27;1.10;;;;;;;23.84;57.95;100070.50;4957068;28;20784;-71
2022/06/25 04:30:32;;;;;;;3.47;1.30;;;;;;;23.81;58.20;100066.41;4995119;28;20308;-71
2022/06/25 04:32:57;;;;;;;7.90;1.30;;;;;;;23.82;58.22;100065.16;4976271;28;20428;-70
2022/06/25 04:35:23;;;;;;;4.03;1.20;;;;;;;23.84;58.00;100067.63;4992768;28;20177;-71
2022/06/25 04:37:48;;;;;;;6.80;1.50;;;;;;;23.84;58.23;100065.53;4992712;28;20668;-71
2022/06/25 04:40:14;;;;;;;2.43;1.23;;;;;;;23.86;58.60;100065.13;4994219;28;20618;-71
2022/06/25 04:42:39;;;;;;;6.43;1.67;;;;;;;23.88;58.13;100063.47;4994846;28;20185;-72
2022/06/25 04:45:05;;;;;;;8.70;1.30;;;;;;;23.91;57.70;100054.00;4978776;28;20186;-71
2022/06/25 04:47:30;;;;;;;3.80;1.50;;;;;;;23.94;57.67;100053.13;4958375;28;20182;-73
2022/06/25 04:49:56;;;;;;;3.50;1.30;;;;;;;23.96;57.66;100058.50;4954301;28;20182;-70
2022/06/25 04:52:21;;;;;;;4.03;1.00;;;;;;;23.97;57.84;100052.31;4960003;28;20205;-72
2022/06/25 04:54:47;;;;;;;2.30;1.20;;;;;;;23.99;57.55;100057.66;4945941;29;20185;-70
2022/06/25 04:57:12;;;;;;;6.70;1.53;;;;;;;24.00;57.81;100059.28;4938684;28;20178;-71
2022/06/25 04:59:38;;;;;;;3.30;1.30;;;;;;;24.00;57.79;100060.13;4951255;29;20258;-71
2022/06/25 05:02:03;;;;;;;4.20;1.30;;;;;;;24.00;57.69;100054.34;4963879;28;20170;-70
2022/06/25 05:04:29;;;;;;;3.03;1.30;;;;;;;24.01;57.65;100056.00;4957954;28;20214;-72
2022/06/25 05:06:54;;;;;;;5.90;1.30;;;;;;;24.01;58.01;100058.88;4971630;28;20593;-72
2022/06/25 05:09:20;;;;;;;3.40;1.23;;;;;;;24.01;57.62;100053.09;4972589;28;20185;-71
2022/06/25 05:11:45;;;;;;;3.83;1.20;;;;;;;24.01;57.74;100056.00;4954507;28;20210;-72
2022/06/25 05:14:11;;;;;;;4.60;1.50;;;;;;;24.00;58.00;100057.25;4957884;28;20573;-71
2022/06/25 05:16:36;;;;;;;5.77;1.40;;;;;;;23.99;58.19;100060.53;4978971;28;20648;-71
2022/06/25 05:19:02;;;;;;;3.70;1.53;;;;;;;24.00;58.08;100057.25;4971495;28;20186;-72
2022/06/25 05:21:27;;;;;;;4.37;1.40;;;;;;;23.98;58.11;100068.34;4970366;28;20174;-72
2022/06/25 05:23:52;;;;;;;3.10;0.93;;;;;;;23.97;58.04;100063.00;4970288;28;20206;-70
2022/06/25 05:26:18;;;;;;;2.53;1.23;;;;;;;23.98;57.83;100064.69;4974453;28;20183;-71
2022/06/25 05:28:43;;;;;;;3.33;1.17;;;;;;;23.98;58.30;100071.25;4954101;28;20174;-70
2022/06/25 05:31:09;;;;;;;5.13;1.10;;;;;;;24.00;57.75;100068.78;4973043;28;20210;-70
2022/06/25 05:33:34;;;;;;;4.93;1.20;;;;;;;24.03;57.90;100065.03;4953988;28;20189;-70
2022/06/25 05:36:00;;;;;;;4.33;1.10;;;;;;;24.05;57.79;100070.38;4957052;28;20190;-72
2022/06/25 05:38:25;;;;;;;2.77;1.00;;;;;;;24.04;58.11;100072.44;4955864;28;20197;-70
2022/06/25 05:40:51;;;;;;;2.07;1.03;;;;;;;24.02;57.50;100071.22;4954769;28;20233;-70
2022/06/25 05:43:16;;;;;;;8.40;1.37;;;;;;;24.03;58.15;100061.34;4957163;28;20222;-71
2022/06/25 05:45:41;;;;;;;2.80;1.10;;;;;;;24.03;57.71;100067.91;4973683;28;20174;-71
2022/06/25 05:48:07;;;;;;;2.73;1.10;;;;;;;24.04;57.88;100069.53;4971942;28;20175;-71
2022/06/25 05:50:32;;;;;;;2.90;1.20;;;;;;;24.05;57.84;100076.97;4973902;28;20197;-70
2022/06/25 05:52:58;;;;;;;3.70;1.20;;;;;;;24.07;57.81;100074.47;4991088;28;20208;-72
2022/06/25 05:55:24;;;;;;;3.30;0.90;;;;;;;24.08;58.09;100073.22;4973476;28;20543;-72
2022/06/25 05:57:50;;;;;;;2.67;1.00;;;;;;;24.12;57.98;100076.06;4990415;28;20184;-71
2022/06/25 06:00:16;;;;;;;3.30;1.00;;;;;;;24.05;58.58;100079.84;4990418;28;20453;-70
2022/06/25 06:02:41;;;;;;;2.23;0.93;;;;;;;24.10;58.10;100078.56;4990865;28;20505;-70
2022/06/25 06:05:07;;;;;;;4.63;1.03;;;;;;;23.95;58.56;100077.88;4976416;28;20217;-71
2022/06/25 06:07:32;;;;;;;2.67;1.10;;;;;;;23.89;58.64;100085.31;4973672;28;20174;-71
2022/06/25 06:09:58;;;;;;;4.63;1.10;;;;;;;23.93;58.52;100086.13;4990179;28;20174;-71
2022/06/25 06:12:23;;;;;;;3.80;1.10;;;;;;;23.89;58.75;100096.84;4990315;28;20259;-71
2022/06/25 06:14:49;;;;;;;3.93;1.10;;;;;;;23.97;58.48;100088.97;4979179;28;20348;-72
2022/06/25 06:17:14;;;;;;;4.63;1.40;;;;;;;24.01;58.39;100084.84;4935550;28;20175;-72
2022/06/25 06:19:40;;;;;;;1.83;1.17;;;;;;;23.97;58.60;100084.03;4969347;28;20642;-71
2022/06/25 06:22:05;;;;;;;2.33;1.10;;;;;;;24.03;58.53;100084.41;4969918;28;20214;-71
2022/06/25 06:24:31;;;;;;;3.50;1.13;;;;;;;23.85;58.82;100087.38;4969419;28;20230;-71
2022/06/25 06:26:56;;;;;;;1.80;1.03;;;;;;;23.96;58.44;100088.16;4961809;28;20193;-71
2022/06/25 06:29:21;;;;;;;2.60;1.13;;;;;;;23.99;59.19;100084.41;4972463;28;20184;-71
2022/06/25 06:31:47;;;;;;;4.23;0.97;;;;;;;23.99;59.13;100087.28;4993034;28;20293;-71
2022/06/25 06:34:12;;;;;;;3.30;1.20;;;;;;;23.99;58.63;100081.53;4977490;28;20182;-71
2022/06/25 06:36:38;;;;;;;2.20;0.90;;;;;;;24.00;58.66;100076.59;4953714;28;20296;-71
2022/06/25 06:39:03;;;;;;;2.17;1.07;;;;;;;23.99;58.82;100078.66;4957257;28;20179;-71
2022/06/25 06:41:29;;;;;;;7.33;1.30;;;;;;;24.01;58.78;100075.34;4975408;28;20178;-71
2022/06/25 06:43:54;;;;;;;2.30;1.00;;;;;;;24.00;58.83;100080.31;4972928;28;20178;-71
2022/06/25 06:46:19;;;;;;;2.10;1.10;;;;;;;24.00;58.52;100074.53;4972876;28;20170;-72
2022/06/25 06:48:45;;;;;;;2.83;0.90;;;;;;;23.93;58.68;100077.47;4974991;28;20182;-72
2022/06/25 06:51:11;;;;;;;2.10;1.00;;;;;;;23.89;59.02;100073.78;4974271;28;20224;-71
2022/06/25 06:53:36;;;;;;;1.60;0.90;;;;;;;23.96;58.89;100072.91;4957804;28;20516;-71
2022/06/25 06:56:02;;;;;;;3.67;0.93;;;;;;;24.00;58.90;100079.47;4973493;28;20175;-71
2022/06/25 06:58:28;;;;;;;5.90;1.10;;;;;;;23.99;58.31;100072.88;4975510;28;20237;-72
2022/06/25 07:00:53;;;;;;;2.67;0.90;;;;;;;24.03;58.35;100075.75;4958294;28;20603;-71
2022/06/25 07:03:19;;;;;;;2.80;1.00;;;;;;;23.82;58.82;100070.94;4956407;28;20541;-71
2022/06/25 07:05:44;;;;;;;3.27;1.27;;;;;;;23.86;58.79;100074.63;4977178;28;20471;-72
2022/06/25 07:08:10;;;;;;;1.70;0.90;;;;;;;23.76;58.62;100074.66;4972976;28;20178;-74
2022/06/25 07:10:35;;;;;;;3.40;1.20;;;;;;;23.77;58.75;100068.50;4977637;28;20533;-71
2022/06/25 07:13:00;;;;;;;2.60;1.00;;;;;;;23.90;58.69;100065.97;4974281;28;20182;-72
2022/06/25 07:15:26;;;;;;;2.23;1.00;;;;;;;23.97;58.24;100063.00;4954520;28;20186;-71
2022/06/25 07:17:51;;;;;;;2.43;0.80;;;;;;;23.97;58.10;100063.84;4970562;28;20179;-72
2022/06/25 07:20:17;;;;;;;2.90;0.90;;;;;;;23.84;58.29;100062.66;4971517;28;20187;-71
2022/06/25 07:22:42;;;;;;;2.17;0.90;;;;;;;23.93;58.52;100057.28;4972407;28;20182;-71
2022/06/25 07:25:08;;;;;;;2.90;0.97;;;;;;;23.91;58.15;100048.25;4972701;28;20175;-71
2022/06/25 07:27:34;;;;;;;5.80;0.80;;;;;;;23.84;58.25;100047.44;4983992;28;20188;-71
2022/06/25 07:29:59;;;;;;;2.33;0.87;;;;;;;23.77;58.42;100048.31;4992101;28;20775;-71
2022/06/25 07:32:24;;;;;;;1.60;0.80;;;;;;;23.81;58.62;100049.09;4994343;28;20205;-71
2022/06/25 07:34:50;;;;;;;2.00;1.03;;;;;;;23.91;58.39;100042.47;4975180;28;20193;-72
2022/06/25 07:37:16;;;;;;;2.20;0.90;;;;;;;23.92;58.14;100038.34;4975789;28;20182;-71
2022/06/25 07:39:42;;;;;;;1.80;0.80;;;;;;;23.97;58.12;100039.94;4979158;28;20857;-71
2022/06/25 07:42:07;;;;;;;2.07;1.20;;;;;;;23.94;58.34;100041.59;4995849;28;20269;-71
2022/06/25 07:44:33;;;;;;;2.20;1.10;;;;;;;23.83;57.19;100037.97;4985203;28;20185;-70
2022/06/25 07:46:58;;;;;;;2.30;1.23;;;;;;;23.93;57.89;100039.97;4941381;28;20175;-71
2022/06/25 07:49:24;;;;;;;2.93;1.00;;;;;;;23.98;57.99;100036.63;4976487;28;20179;-71
2022/06/25 07:52:01;;;;;;;2.17;1.10;;;;;;;23.92;58.05;100038.34;4955802;28;20554;-71
2022/06/25 07:54:29;;;;;;;6.63;1.13;;;;;;;23.93;58.01;100037.09;4957753;28;20711;-72
2022/06/25 07:56:54;;;;;;;2.43;1.00;;;;;;;23.96;57.98;100039.13;4954588;28;20426;-72
2022/06/25 07:59:20;;;;;;;1.90;1.00;;;;;;;23.95;57.96;100043.28;4971846;28;20416;-72
2022/06/25 08:01:46;;;;;;;1.83;1.00;;;;;;;23.97;57.95;100037.06;4974885;28;20175;-72
2022/06/25 08:04:11;;;;;;;2.33;0.90;;;;;;;23.82;58.44;100030.56;4988089;28;20564;-72
2022/06/25 08:06:38;;;;;;;1.97;0.97;;;;;;;23.87;58.17;100038.75;4954379;28;20648;-73
2022/06/25 08:09:04;;;;;;;3.07;1.07;;;;;;;23.88;58.63;100031.75;4973084;28;20222;-72
2022/06/25 08:11:30;;;;;;;3.07;1.00;;;;;;;23.92;58.07;100038.34;4972654;28;20827;-71
2022/06/25 08:13:56;;;;;;;1.93;1.10;;;;;;;23.80;58.61;100035.09;4951621;28;20185;-71
2022/06/25 08:16:24;;;;;;;3.50;1.13;;;;;;;23.84;59.20;100028.06;4968571;28;20307;-70
2022/06/25 08:18:49;;;;;;;4.50;1.40;;;;;;;23.86;58.75;100028.47;4982412;28;20277;-71
2022/06/25 08:21:15;;;;;;;4.60;1.27;;;;;;;23.94;58.62;100038.72;4952065;28;20411;-71
2022/06/25 08:23:40;;;;;;;3.03;1.10;;;;;;;23.82;58.54;100039.22;4983213;28;20163;-72
2022/06/25 08:26:05;;;;;;;2.57;1.20;;;;;;;23.86;58.61;100033.41;4966438;28;20182;-72
2022/06/25 08:28:31;;;;;;;3.20;1.20;;;;;;;23.90;58.38;100022.72;5006557;28;20191;-71
2022/06/25 08:30:56;;;;;;;2.50;1.43;;;;;;;23.92;57.57;100023.09;4973678;28;20196;-73
2022/06/25 08:33:22;;;;;;;12.57;1.30;;;;;;;23.99;58.08;100023.84;4989157;28;20252;-71
2022/06/25 08:35:47;;;;;;;3.20;1.10;;;;;;;23.99;58.62;100023.84;4989396;28;20641;-71
2022/06/25 08:38:13;;;;;;;2.57;1.10;;;;;;;23.98;58.08;100021.41;4964031;28;20190;-72
2022/06/25 08:40:39;;;;;;;2.10;1.20;;;;;;;23.95;58.51;100014.44;4953020;28;20193;-71
2022/06/25 08:43:04;;;;;;;2.90;1.20;;;;;;;23.97;58.18;100016.88;4953801;28;20179;-71
2022/06/25 08:45:30;;;;;;;5.57;1.47;;;;;;;23.83;57.79;100011.22;4948483;28;20179;-71
2022/06/25 08:47:57;;;;;;;3.07;1.30;;;;;;;23.78;58.39;100011.66;4985792;28;20261;-73
2022/06/25 08:50:23;;;;;;;3.10;1.10;;;;;;;23.91;58.73;100004.97;4970645;28;20478;-71
2022/06/25 08:52:49;;;;;;;6.53;1.60;;;;;;;23.92;58.19;100006.63;4974775;28;20876;-71
2022/06/25 08:55:30;;;;;;;4.33;1.30;;;;;;;23.97;58.08;100005.31;4957793;28;20174;-72
2022/06/25 08:57:56;;;;;;;3.13;1.30;;;;;;;23.99;58.18;100006.53;4957514;28;20940;-72
2022/06/25 09:00:22;;;;;;;2.00;0.90;;;;;;;24.00;57.62;100016.88;4975223;28;20461;-72
2022/06/25 09:02:48;;;;;;;2.90;1.13;;;;;;;23.90;56.78;100011.16;4971462;28;20159;-70
2022/06/25 09:05:13;;;;;;;1.87;0.80;;;;;;;23.94;57.61;100009.88;4970108;28;20233;-71
2022/06/25 09:07:39;;;;;;;2.00;1.13;;;;;;;24.03;57.68;100004.44;4953388;28;20925;-72
2022/06/25 09:10:04;;;;;;;2.67;1.37;;;;;;;24.05;57.63;100007.75;4971917;28;20178;-70
2022/06/25 09:12:30;;;;;;;3.70;1.30;;;;;;;24.07;57.55;100004.41;4974262;28;20201;-71
2022/06/25 09:14:55;;;;;;;4.17;1.50;;;;;;;24.07;57.32;99998.66;4952197;29;20195;-71
2022/06/25 09:17:21;;;;;;;2.70;1.40;;;;;;;24.09;57.93;100001.94;4950459;28;20277;-70
2022/06/25 09:19:48;;;;;;;3.10;1.37;;;;;;;24.11;57.46;100003.16;4951690;28;20170;-71
2022/06/25 09:22:14;;;;;;;2.17;1.20;;;;;;;24.10;57.89;99995.75;4975878;28;20166;-71
2022/06/25 09:24:50;;;;;;;3.30;1.50;;;;;;;24.11;58.07;100000.28;4974916;28;20437;-71
2022/06/25 09:27:36;;;;;;;3.17;1.17;;;;;;;24.11;57.29;100000.28;4979754;28;20765;-71
2022/06/25 09:30:14;;;;;;;3.47;1.40;;;;;;;24.13;57.41;99997.78;4990726;28;20413;-70
2022/06/25 09:32:51;;;;;;;2.17;1.37;;;;;;;24.17;58.34;100000.63;4993523;28;20456;-71
2022/06/25 09:35:32;;;;;;;4.17;1.20;;;;;;;24.17;58.67;99998.56;4975489;28;20965;-70
2022/06/25 09:38:07;;;;;;;3.43;1.60;;;;;;;24.15;58.00;100001.06;4990386;28;20416;-70
2022/06/25 09:40:33;;;;;;;2.50;1.40;;;;;;;24.09;57.36;99996.97;4988772;28;20495;-70
2022/06/25 09:42:59;;;;;;;11.17;1.30;;;;;;;24.12;59.03;99999.03;4988975;28;20512;-71
2022/06/25 09:45:25;;;;;;;2.40;1.50;;;;;;;24.17;59.50;99997.72;4956023;28;20184;-70
2022/06/25 09:47:50;;;;;;;6.43;1.90;;;;;;;24.19;58.76;99990.28;4964907;28;20185;-70
2022/06/25 09:50:17;;;;;;;4.30;1.83;;;;;;;24.21;59.22;99992.75;4970019;28;20174;-71
2022/06/25 09:52:55;;;;;;;3.60;1.30;;;;;;;24.21;58.49;99987.81;4969208;28;20202;-71
2022/06/25 09:55:22;;;;;;;4.97;1.60;;;;;;;24.16;59.25;99991.16;4953160;28;20806;-71
2022/06/25 09:57:48;;;;;;;3.77;1.57;;;;;;;24.18;58.19;99987.84;4954297;28;20421;-70
2022/06/25 10:00:17;;;;;;;5.23;1.67;;;;;;;24.20;58.90;99986.19;4954049;28;20422;-70
2022/06/25 10:02:44;;;;;;;6.30;1.60;;;;;;;24.21;59.15;99984.94;4970089;28;20473;-72
2022/06/25 10:05:10;;;;;;;7.37;1.53;;;;;;;24.30;61.01;99979.47;4955139;28;20470;-70
2022/06/25 10:10:20;;;;;;;14.00;2.00;;;;;;;24.32;60.14;99979.03;4957597;28;20170;-71
2022/06/25 10:12:47;;;;;;;6.07;1.70;;;;;;;24.29;58.31;99977.81;4956792;28;20539;-71
2022/06/25 10:15:15;;;;;;;7.80;1.80;;;;;;;24.28;59.42;99976.19;4957871;28;20429;-72
2022/06/25 10:17:40;;;;;;;6.17;1.80;;;;;;;24.36;58.95;99979.81;4974863;28;20430;-70
2022/06/25 10:20:06;;;;;;;4.97;1.60;;;;;;;24.40;59.09;99972.78;4973543;28;20425;-71
2022/06/25 10:22:31;;;;;;;6.70;2.07;;;;;;;24.37;59.15;99967.84;4976051;28;20908;-70
2022/06/25 10:24:59;;;;;;;7.00;1.60;;;;;;;24.39;57.29;99962.47;4975338;28;20170;-70
2022/06/25 10:27:24;;;;;;;7.70;1.63;;;;;;;24.37;58.90;99961.25;4957447;28;20182;-69
2022/06/25 10:29:54;;;;;;;5.80;1.63;;;;;;;24.47;57.63;99966.09;4970313;28;20442;-71
2022/06/25 10:32:20;;;;;;;5.57;2.00;;;;;;;24.40;59.29;99967.00;4966913;28;20696;-71
2022/06/25 10:34:55;;;;;;;5.17;1.80;;;;;;;24.43;59.34;99959.56;4964270;28;20754;-71
2022/06/25 10:37:21;;;;;;;6.37;2.03;;;;;;;24.48;59.13;99959.09;4972450;28;20548;-70
2022/06/25 10:39:56;;;;;;;5.63;1.87;;;;;;;24.44;57.08;99950.44;4950621;28;20489;-71
2022/06/25 10:45:33;;;;;;;7.50;2.07;;;;;;;24.40;58.27;99940.19;4986386;28;20492;-71
2022/06/25 10:47:59;;;;;;;4.47;1.87;;;;;;;24.64;57.52;99936.25;4973527;28;20857;-70
2022/06/25 10:50:27;;;;;;;5.03;1.80;;;;;;;24.65;57.65;99932.09;4970265;28;20430;-70
2022/06/25 10:53:02;;;;;;;4.40;1.40;;;;;;;24.80;55.83;99928.59;4972117;28;20461;-71
2022/06/25 10:55:34;;;;;;;4.90;1.70;;;;;;;24.68;55.27;99920.50;4967707;28;20430;-69
2022/06/25 10:58:14;;;;;;;5.93;1.47;;;;;;;24.70;55.50;99923.78;4971922;28;20433;-69
2022/06/25 11:00:53;;;;;;;4.97;2.10;;;;;;;24.85;55.98;99913.69;4972322;28;20840;-69
2022/06/25 11:03:28;;;;;;;5.80;1.77;;;;;;;24.88;56.08;99921.47;4958835;28;20457;-69
2022/06/25 11:05:54;;;;;;;4.77;1.40;;;;;;;24.97;54.29;99913.09;4975496;28;20468;-71
2022/06/25 11:08:23;;;;;;;4.43;1.83;;;;;;;24.89;55.16;99919.41;4975988;28;20452;-71
2022/06/25 11:10:48;;;;;;;4.70;1.77;;;;;;;24.81;56.63;99915.81;4973597;28;20921;-70
2022/06/25 11:13:14;;;;;;;6.63;1.63;;;;;;;24.88;54.02;99917.78;4955402;28;20506;-70
2022/06/25 11:15:43;;;;;;;2.07;1.20;;;;;;;24.77;56.25;99911.31;4961049;28;20183;-71
2022/06/25 11:18:12;;;;;;;7.13;1.80;;;;;;;24.69;56.32;99909.78;4938864;28;20229;-70
2022/06/25 11:20:38;;;;;;;3.80;1.80;;;;;;;24.77;55.04;99909.25;4987835;28;20442;-71
2022/06/25 11:23:03;;;;;;;4.87;1.90;;;;;;;24.82;54.41;99908.75;4972022;28;20417;-70
2022/06/25 11:28:48;;;;;;;3.50;2.07;;;;;;;24.90;55.32;99907.44;4958508;28;20194;-71
2022/06/25 11:31:23;;;;;;;2.80;1.67;;;;;;;24.91;55.83;99900.41;4971551;28;20968;-71
2022/06/25 11:33:52;;;;;;;4.63;1.77;;;;;;;25.05;55.48;99897.31;4957456;28;20817;-69
2022/06/25 11:36:18;;;;;;;12.20;1.97;;;;;;;25.07;55.41;99896.84;4972733;28;20496;-70
2022/06/25 11:38:49;;;;;;;7.10;2.50;;;;;;;25.14;55.60;99896.75;4972823;28;20418;-69
2022/06/25 11:41:29;;;;;;;6.23;2.00;;;;;;;25.20;54.06;99897.91;4971057;28;20191;-70
2022/06/25 11:43:54;;;;;;;3.20;1.83;;;;;;;25.36;52.95;99895.19;4974232;28;20560;-69
2022/06/25 11:46:20;;;;;;;3.30;1.70;;;;;;;25.15;55.08;99890.56;4973120;28;20418;-69